map of KJYR home
KJYR - Airport
Location
City:  York, Nebraska, United States
Name:York Municipal Airport
ICAO:KJYR
FAA LID:JYR

Details
Type:Airport (Airfield)
Use:Public/Civil
Latitude:4053'47"N (40.896416)
Longitude:9737'27"W (-97.624071)
Datum:WGS 1984
Elevation:1669 ft (509 m)
Variation:3.76E (WMM2015 magnetic declination)
-0.10 annual change
Runways:2
Longest:5898 × 100 ft (1798 × 30.5 m), paved

Time
Time Zone:UTC-6 (DST-5)
Local Time:

Weather
METAR:KJYR 121535Z AUTO 24008KT 10SM OVC033 00/00 A3029 RMK AO2

Related Locations
Nearby:
Farthest:RRG: 10597 mi / 17055 km
Plaine Corail [Sir Gatan Duval Airport (Plaine Corail Airport)], Rodrigues Island, MU

Find:

   beyond  
but within

Other Information
Maps:
NOTAMs:
Links:
Sources:

  
flag of United States
flag of Nebraska
  

Sectional Chart

Flight Planning
at skyvector.com

Satellite Image

Google Maps Satellite view

 

Copyright © 2004-2017 Karl L. Swartz. All rights reserved.
The Great Circle Mapper name and logo are trademarks of the Great Circle Mapper.
All other trademarks mentioned herein belong to their respective owners.
Please see credits for attibutions and further copyright information.

  Follow gcmap on Facebook Follow gcmap on Twitter Follow gcmap on Google+ GCmap on LinkedIn

hCard Microformat

Geo Microformat